createdAt,value
2022-11-27T00:01:44.722Z,0.34
2022-11-27T00:11:21.545Z,0.35
2022-11-27T00:20:57.844Z,0.23
2022-11-27T00:30:34.506Z,0.21
2022-11-27T00:40:11.128Z,0.15
2022-11-27T00:49:47.585Z,0
2022-11-27T00:59:24.280Z,-0.08
2022-11-27T01:09:00.913Z,-0.04
2022-11-27T01:18:37.619Z,-0.05
2022-11-27T01:28:14.654Z,-0.08
2022-11-27T01:37:51.176Z,-0.11
2022-11-27T01:47:27.753Z,-0.12
2022-11-27T01:57:04.526Z,-0.14
2022-11-27T02:06:41.240Z,-0.08
2022-11-27T02:16:18.368Z,-0.2
2022-11-27T02:25:54.296Z,-0.28
2022-11-27T02:35:30.737Z,-0.38
2022-11-27T02:45:07.246Z,-0.51
2022-11-27T02:54:43.883Z,-0.57
2022-11-27T03:04:20.393Z,-0.66
2022-11-27T03:13:56.825Z,-0.68
2022-11-27T03:23:33.570Z,-0.84
2022-11-27T03:33:09.942Z,-0.89
2022-11-27T03:42:46.574Z,-0.94
2022-11-27T03:52:23.331Z,-0.98
2022-11-27T04:01:59.878Z,-1.04
2022-11-27T04:11:36.469Z,-1.27
2022-11-27T04:21:12.951Z,-1.31
2022-11-27T04:30:49.543Z,-1.33
2022-11-27T04:40:26.194Z,-1.35
2022-11-27T04:50:02.508Z,-1.31
2022-11-27T04:59:39.673Z,-1.24
2022-11-27T05:09:16.141Z,-1.2
2022-11-27T05:18:52.981Z,-1.09
2022-11-27T05:28:29.756Z,-1.1
2022-11-27T05:38:06.196Z,-1.25
2022-11-27T05:47:42.433Z,-1.28
2022-11-27T05:57:18.799Z,-1.41
2022-11-27T06:06:55.093Z,-1.57
2022-11-27T06:16:31.745Z,-1.43
2022-11-27T06:26:08.484Z,-1.35
2022-11-27T06:35:45.005Z,-1.31
2022-11-27T06:45:21.930Z,-1.25
2022-11-27T06:54:58.779Z,-1.36
2022-11-27T07:04:34.945Z,-1.45
2022-11-27T07:14:11.912Z,-1.54
2022-11-27T07:23:48.523Z,-1.78
2022-11-27T07:33:25.270Z,-1.78
2022-11-27T07:43:01.872Z,-1.51
2022-11-27T07:52:41.695Z,-1.7
2022-11-27T08:02:15.157Z,-1.67
2022-11-27T08:11:52.122Z,-1.44
2022-11-27T08:21:29.092Z,-1.33
2022-11-27T08:31:06.396Z,-1.2
2022-11-27T08:40:43.629Z,-1.12
2022-11-27T08:50:20.005Z,-0.91
2022-11-27T08:59:57.469Z,-0.73
2022-11-27T09:09:35.472Z,-0.57
2022-11-27T09:19:13.170Z,-0.21
2022-11-27T09:28:56.414Z,0.19
2022-11-27T09:38:34.939Z,0.23
2022-11-27T09:48:11.998Z,0.64
2022-11-27T09:57:49.165Z,0.91
2022-11-27T10:07:26.601Z,1.48
2022-11-27T10:17:04.506Z,2.08
2022-11-27T10:26:43.119Z,2.6
2022-11-27T10:36:20.843Z,3.03
2022-11-27T10:45:58.797Z,3.44
2022-11-27T10:55:34.866Z,3.57
2022-11-27T11:05:32.732Z,3.88
2022-11-27T11:14:49.712Z,4.27
2022-11-27T11:24:27.508Z,4.75
2022-11-27T11:34:05.220Z,5.14
2022-11-27T11:43:43.898Z,5.36
2022-11-27T11:53:21.970Z,5.78
2022-11-27T12:02:59.958Z,6.05
2022-11-27T12:12:38.996Z,6.48
2022-11-27T12:22:16.024Z,6.42
2022-11-27T12:31:53.504Z,6.55
2022-11-27T12:41:30.895Z,6.82
2022-11-27T12:51:07.694Z,6.93
2022-11-27T13:00:45.008Z,6.95
2022-11-27T13:10:22.974Z,6.99
2022-11-27T13:20:08.918Z,7.47
2022-11-27T13:29:52.408Z,7.99
2022-11-27T13:39:15.727Z,7.49
2022-11-27T13:48:49.136Z,7.04
2022-11-27T13:58:24.908Z,6.91
2022-11-27T14:08:00.553Z,6.78
2022-11-27T14:27:12.236Z,6.37
2022-11-27T14:36:48.602Z,6.23
2022-11-27T14:46:25.202Z,6.03
2022-11-27T15:05:39.944Z,5.87
2022-11-27T15:15:15.661Z,5.73
2022-11-27T15:24:52.223Z,5.6
2022-11-27T15:34:28.873Z,5.51
2022-11-27T15:44:05.569Z,5.27
2022-11-27T15:53:42.093Z,5.29
2022-11-27T16:03:19.190Z,5.19
2022-11-27T16:12:56.218Z,5.09
2022-11-27T16:22:33.169Z,4.98
2022-11-27T16:32:10.468Z,5
2022-11-27T16:41:47.325Z,4.91
2022-11-27T16:51:23.890Z,4.75
2022-11-27T17:20:14.305Z,4.45
2022-11-27T17:29:50.991Z,4.36
2022-11-27T17:39:27.693Z,4.25
2022-11-27T17:49:04.715Z,4.16
2022-11-27T17:58:41.575Z,4.19
2022-11-27T18:08:18.774Z,4.17
2022-11-27T18:17:56.106Z,4.13
2022-11-27T18:27:32.274Z,4.04
2022-11-27T18:37:09.167Z,3.98
2022-11-27T18:56:22.674Z,3.85
2022-11-27T19:15:36.051Z,3.72
2022-11-27T19:34:50.113Z,3.71
2022-11-27T19:54:07.013Z,3.52
2022-11-27T20:03:40.669Z,3.53
2022-11-27T20:13:18.114Z,3.47
2022-11-27T20:22:57.166Z,3.38
2022-11-27T20:32:32.731Z,3.35
2022-11-27T20:42:09.683Z,3.42
2022-11-27T20:51:46.799Z,3.5
2022-11-27T21:01:24.083Z,3.44
2022-11-27T21:11:00.880Z,3.4
2022-11-27T21:20:37.527Z,3.34
2022-11-27T21:30:13.996Z,3.37
2022-11-27T21:39:50.737Z,3.47
2022-11-27T21:49:27.852Z,3.41
2022-11-27T21:59:04.778Z,3.37
2022-11-27T22:08:41.673Z,3.33
2022-11-27T22:18:18.254Z,3.36
2022-11-27T22:27:55.202Z,3.36
2022-11-27T22:37:31.753Z,3.26
2022-11-27T22:47:08.982Z,3.35
2022-11-27T22:56:45.787Z,3.38
2022-11-27T23:06:22.999Z,3.41
2022-11-27T23:15:59.941Z,3.39
2022-11-27T23:25:36.852Z,3.38
2022-11-27T23:35:13.700Z,3.37
2022-11-27T23:44:50.657Z,3.39
2022-11-27T23:54:27.416Z,3.43
